Time;durP1;ratioP1;P1;durP2;ratioP2;P2;SDS_P1;SDS_P2;PMS_P1;PMS_P2;Temp;Humidity;BMP_temperature;BMP_pressure;BME280_temperature;BME280_humidity;BME280_pressure;Samples;Min_cycle;Max_cycle;Signal;HPM_P1;HPM_P2
2021/04/28 00:00:08;;;;;;;17.70;16.80;;;8.50;13.20;;;;;;5076383;28;20475;-70
2021/04/28 00:02:34;;;;;;;18.60;17.70;;;8.50;13.60;;;;;;5076748;28;20184;-68
2021/04/28 00:05:01;;;;;;;16.60;15.60;;;8.40;13.80;;;;;;5076692;28;20459;-70
2021/04/28 00:07:27;;;;;;;18.90;17.57;;;8.40;13.80;;;;;;5074117;28;20447;-70
2021/04/28 00:09:52;;;;;;;18.23;17.13;;;8.40;13.80;;;;;;5073234;28;20442;-69
2021/04/28 00:12:18;;;;;;;17.63;16.63;;;8.40;13.90;;;;;;5073593;28;20177;-72
2021/04/28 00:14:43;;;;;;;18.40;17.40;;;8.30;14.20;;;;;;5073481;28;20175;-68
2021/04/28 00:17:09;;;;;;;19.00;17.63;;;8.30;14.80;;;;;;5073417;28;20181;-68
2021/04/28 00:19:35;;;;;;;18.13;17.02;;;8.30;15.10;;;;;;5073135;28;20258;-68
2021/04/28 00:22:00;;;;;;;18.80;17.60;;;8.20;15.40;;;;;;5073452;28;20216;-70
2021/04/28 00:24:26;;;;;;;16.03;15.00;;;8.20;15.40;;;;;;5073663;28;20183;-72
2021/04/28 00:26:52;;;;;;;16.97;16.10;;;8.10;15.60;;;;;;5073473;28;20260;-70
2021/04/28 00:29:17;;;;;;;17.93;16.50;;;8.10;16.10;;;;;;5072852;28;20193;-68
2021/04/28 00:31:43;;;;;;;16.67;15.47;;;7.90;16.20;;;;;;5073448;28;20237;-70
2021/04/28 00:34:08;;;;;;;17.37;16.07;;;7.90;16.60;;;;;;5072046;28;20176;-70
2021/04/28 00:36:34;;;;;;;18.00;16.70;;;7.90;16.80;;;;;;5073336;28;20534;-70
2021/04/28 00:39:00;;;;;;;15.70;14.70;;;7.80;16.60;;;;;;5072621;28;20462;-69
2021/04/28 00:41:25;;;;;;;17.03;15.63;;;7.80;16.90;;;;;;5073081;28;20175;-68
2021/04/28 00:43:51;;;;;;;15.97;14.97;;;7.70;17.10;;;;;;5073100;28;20182;-70
2021/04/28 00:46:17;;;;;;;15.70;14.75;;;7.70;17.00;;;;;;5073149;28;20271;-70
2021/04/28 00:48:42;;;;;;;15.90;15.10;;;7.60;16.70;;;;;;5072774;28;20289;-70
2021/04/28 00:51:08;;;;;;;16.73;15.63;;;7.70;15.80;;;;;;5072805;28;20329;-70
2021/04/28 00:53:34;;;;;;;16.23;14.97;;;7.60;16.30;;;;;;5072976;28;20241;-70
2021/04/28 00:56:01;;;;;;;17.87;16.37;;;7.50;16.60;;;;;;5073120;28;20262;-70
2021/04/28 00:58:27;;;;;;;14.90;13.73;;;7.50;16.60;;;;;;5072881;28;20508;-70
2021/04/28 01:00:55;;;;;;;16.80;15.57;;;7.50;16.60;;;;;;5072445;28;20285;-70
2021/04/28 01:03:28;;;;;;;15.77;14.52;;;7.40;16.70;;;;;;5072946;28;20277;-71
2021/04/28 01:05:57;;;;;;;15.65;14.90;;;7.30;16.70;;;;;;5072880;28;20194;-72
2021/04/28 01:08:23;;;;;;;17.00;15.90;;;7.30;16.70;;;;;;5072770;28;20202;-73
2021/04/28 01:10:50;;;;;;;15.73;14.10;;;7.20;16.60;;;;;;5072270;28;20278;-70
2021/04/28 01:13:18;;;;;;;14.00;13.10;;;7.30;17.10;;;;;;5072641;28;20171;-70
2021/04/28 01:15:43;;;;;;;14.15;13.25;;;7.20;17.30;;;;;;5072462;28;20174;-72
2021/04/28 01:18:09;;;;;;;15.23;14.17;;;7.30;17.40;;;;;;5071933;28;20592;-70
2021/04/28 01:20:37;;;;;;;13.25;12.65;;;7.20;17.30;;;;;;5070938;28;20211;-71
2021/04/28 01:23:06;;;;;;;15.43;14.10;;;7.10;17.20;;;;;;5072656;28;20174;-68
2021/04/28 01:25:32;;;;;;;15.00;14.20;;;7.10;17.20;;;;;;5072118;28;20232;-68
2021/04/28 01:28:12;;;;;;;14.45;13.50;;;7.10;17.20;;;;;;5071902;28;20201;-71
2021/04/28 01:30:38;;;;;;;14.48;13.48;;;7.00;17.50;;;;;;5071574;28;20212;-71
2021/04/28 01:33:04;;;;;;;14.27;13.33;;;6.90;17.10;;;;;;5070680;28;20599;-71
2021/04/28 01:35:30;;;;;;;13.93;13.03;;;6.90;17.10;;;;;;5072143;28;20179;-68
2021/04/28 01:37:57;;;;;;;14.32;13.57;;;6.90;17.50;;;;;;5071976;28;20752;-72
2021/04/28 01:40:25;;;;;;;14.88;13.88;;;6.90;17.30;;;;;;5071343;28;20201;-68
2021/04/28 01:42:52;;;;;;;13.90;13.07;;;6.80;17.40;;;;;;5071908;28;20216;-68
2021/04/28 01:45:19;;;;;;;14.48;13.48;;;6.80;17.70;;;;;;5072089;28;20178;-70
2021/04/28 01:47:45;;;;;;;13.30;12.60;;;6.80;17.80;;;;;;5071883;28;20212;-70
2021/04/28 01:50:13;;;;;;;13.70;12.90;;;6.70;18.20;;;;;;5070114;28;20194;-69
2021/04/28 01:52:42;;;;;;;13.15;12.43;;;6.70;18.20;;;;;;5071890;28;20545;-69
2021/04/28 01:55:08;;;;;;;13.88;12.98;;;6.80;18.30;;;;;;5071823;28;20173;-70
2021/04/28 01:57:35;;;;;;;15.68;12.55;;;6.70;18.20;;;;;;5071966;28;20656;-74
2021/04/28 02:00:04;;;;;;;12.95;12.23;;;6.70;18.80;;;;;;5071573;28;20655;-70
2021/04/28 02:02:30;;;;;;;14.05;13.25;;;6.70;18.90;;;;;;5070411;28;20647;-71
2021/04/28 02:04:56;;;;;;;12.87;11.97;;;6.60;18.90;;;;;;5071937;28;20198;-70
2021/04/28 02:07:21;;;;;;;12.20;11.50;;;6.50;19.50;;;;;;5070316;28;20206;-70
2021/04/28 02:09:47;;;;;;;12.10;11.07;;;6.50;19.60;;;;;;5069992;28;20570;-70
2021/04/28 02:12:13;;;;;;;13.60;12.77;;;6.40;19.80;;;;;;5071550;28;20178;-72
2021/04/28 02:14:41;;;;;;;12.35;11.30;;;6.40;19.80;;;;;;5071690;28;20225;-71
2021/04/28 02:17:07;;;;;;;13.20;12.10;;;6.40;20.20;;;;;;5071611;28;20701;-69
2021/04/28 02:19:37;;;;;;;12.38;11.23;;;6.30;20.00;;;;;;5071094;28;20280;-69
2021/04/28 02:22:03;;;;;;;11.95;11.20;;;6.20;20.20;;;;;;5071541;28;20169;-72
2021/04/28 02:24:28;;;;;;;12.75;11.85;;;6.20;20.40;;;;;;5071540;28;20192;-70
2021/04/28 02:26:56;;;;;;;12.43;11.63;;;6.10;20.30;;;;;;5071300;28;20210;-69
2021/04/28 02:29:21;;;;;;;13.15;11.98;;;6.10;20.40;;;;;;5070495;28;20198;-70
2021/04/28 02:31:47;;;;;;;12.77;11.67;;;6.10;20.80;;;;;;5070063;28;20170;-72
2021/04/28 02:34:13;;;;;;;11.23;10.63;;;6.10;20.80;;;;;;5069844;28;20205;-70
2021/04/28 02:36:41;;;;;;;11.60;10.80;;;6.00;20.80;;;;;;5070007;28;20177;-70
2021/04/28 02:39:11;;;;;;;11.63;10.65;;;6.10;20.80;;;;;;5070737;28;20181;-70
2021/04/28 02:41:43;;;;;;;12.05;11.25;;;6.00;20.80;;;;;;5070204;28;20181;-72
2021/04/28 02:44:12;;;;;;;12.00;10.93;;;6.00;20.80;;;;;;5069786;28;20555;-71
2021/04/28 02:46:38;;;;;;;12.75;11.52;;;5.90;20.80;;;;;;5070942;28;20227;-70
2021/04/28 02:49:04;;;;;;;12.00;11.07;;;5.90;21.30;;;;;;5070860;28;20170;-70
2021/04/28 02:51:31;;;;;;;17.05;12.25;;;5.80;21.60;;;;;;5071288;28;20345;-69
2021/04/28 02:53:59;;;;;;;11.15;10.18;;;5.80;21.50;;;;;;5070954;28;20174;-69
2021/04/28 02:56:28;;;;;;;11.77;10.98;;;5.80;21.60;;;;;;5071222;28;20253;-70
2021/04/28 02:58:55;;;;;;;10.27;9.45;;;5.80;21.70;;;;;;5070521;28;20174;-71
2021/04/28 03:01:22;;;;;;;13.70;11.25;;;5.70;21.80;;;;;;5070901;28;20166;-70
2021/04/28 03:03:47;;;;;;;10.88;10.13;;;5.70;22.40;;;;;;5070981;28;20544;-70
2021/04/28 03:06:13;;;;;;;11.38;10.38;;;5.70;22.20;;;;;;5070954;28;20261;-69
2021/04/28 03:08:39;;;;;;;11.90;10.90;;;5.70;21.90;;;;;;5070651;28;20579;-70
2021/04/28 03:11:05;;;;;;;10.60;9.70;;;5.70;22.00;;;;;;5070591;28;20432;-70
2021/04/28 03:13:31;;;;;;;11.20;10.27;;;5.60;22.00;;;;;;5071298;28;20177;-69
2021/04/28 03:15:57;;;;;;;11.07;10.27;;;5.60;22.70;;;;;;5071334;28;20166;-69
2021/04/28 03:18:23;;;;;;;13.80;11.53;;;5.60;22.40;;;;;;5070833;28;20174;-70
2021/04/28 03:20:52;;;;;;;11.82;10.73;;;5.60;22.30;;;;;;5071253;28;20205;-71
2021/04/28 03:23:18;;;;;;;11.82;11.00;;;5.50;22.20;;;;;;5071178;28;20234;-71
2021/04/28 03:25:44;;;;;;;13.10;11.00;;;5.50;22.40;;;;;;5070872;28;20643;-72
2021/04/28 03:28:10;;;;;;;14.10;11.30;;;5.50;22.30;;;;;;5070772;28;20738;-72
2021/04/28 03:30:36;;;;;;;11.73;10.80;;;5.50;22.50;;;;;;5070279;28;20437;-72
2021/04/28 03:33:02;;;;;;;12.80;11.43;;;5.50;22.70;;;;;;5070595;28;20540;-70
2021/04/28 03:35:27;;;;;;;12.80;11.65;;;5.50;22.70;;;;;;5070411;28;20205;-70
2021/04/28 03:37:53;;;;;;;11.60;10.80;;;5.40;22.60;;;;;;5070609;28;20590;-69
2021/04/28 03:40:19;;;;;;;11.47;10.63;;;5.40;22.60;;;;;;5070024;28;20213;-71
2021/04/28 03:42:44;;;;;;;12.43;11.40;;;5.40;22.80;;;;;;5072952;28;20190;-70
2021/04/28 03:45:10;;;;;;;12.77;11.67;;;5.40;22.80;;;;;;5074154;28;20423;-73
2021/04/28 03:47:36;;;;;;;13.07;12.07;;;5.40;22.90;;;;;;5074213;28;20236;-73
2021/04/28 03:50:03;;;;;;;12.10;11.13;;;5.30;23.00;;;;;;5072535;28;20194;-69
2021/04/28 03:52:28;;;;;;;11.73;10.70;;;5.40;23.10;;;;;;5063722;28;20174;-71
2021/04/28 03:54:54;;;;;;;13.50;12.23;;;5.40;23.00;;;;;;5052609;28;20183;-69
2021/04/28 03:57:19;;;;;;;12.30;11.20;;;5.40;23.00;;;;;;5053744;28;20189;-73
2021/04/28 03:59:45;;;;;;;13.37;12.20;;;5.40;23.60;;;;;;5053987;28;20694;-70
2021/04/28 04:02:11;;;;;;;13.60;12.27;;;5.40;23.10;;;;;;5054003;28;20225;-70
2021/04/28 04:04:36;;;;;;;13.33;11.93;;;5.40;23.30;;;;;;5053882;28;20175;-70
2021/04/28 04:07:02;;;;;;;16.30;12.73;;;5.40;23.20;;;;;;5055036;28;20202;-71
2021/04/28 04:09:28;;;;;;;12.50;11.60;;;5.30;23.40;;;;;;5066494;28;20416;-70
2021/04/28 04:11:53;;;;;;;14.03;12.93;;;5.30;23.30;;;;;;5053788;28;20166;-70
2021/04/28 04:14:19;;;;;;;21.37;11.80;;;5.30;23.40;;;;;;5053448;28;20453;-70
2021/04/28 04:16:46;;;;;;;18.77;12.40;;;5.30;23.20;;;;;;5053867;28;20262;-71
2021/04/28 04:19:11;;;;;;;14.05;12.32;;;5.30;23.40;;;;;;5053268;28;20194;-69
2021/04/28 04:21:37;;;;;;;13.17;12.03;;;5.30;23.20;;;;;;5053378;28;20640;-72
2021/04/28 04:24:03;;;;;;;12.93;11.83;;;5.40;23.00;;;;;;5053498;28;20186;-69
2021/04/28 04:26:28;;;;;;;13.15;12.05;;;5.50;22.90;;;;;;5051846;28;20182;-69
2021/04/28 04:28:54;;;;;;;12.63;11.50;;;5.50;22.80;;;;;;5051908;28;20547;-72
2021/04/28 04:31:19;;;;;;;12.40;11.50;;;5.50;22.80;;;;;;5053132;28;20632;-70
2021/04/28 04:33:45;;;;;;;13.23;10.63;;;5.50;22.80;;;;;;5053499;28;20181;-69
2021/04/28 04:36:11;;;;;;;12.83;11.80;;;5.60;23.00;;;;;;5053503;28;20179;-70
2021/04/28 04:38:36;;;;;;;14.50;13.27;;;5.60;22.90;;;;;;5053264;28;20186;-68
2021/04/28 04:41:02;;;;;;;13.20;12.10;;;5.70;22.90;;;;;;5090886;22;20307;-71
2021/04/28 04:43:28;;;;;;;13.57;12.27;;;5.70;23.00;;;;;;5072735;28;20174;-70
2021/04/28 04:45:53;;;;;;;13.53;12.17;;;5.80;22.80;;;;;;5072487;28;20181;-69
2021/04/28 04:48:19;;;;;;;13.80;12.80;;;5.90;22.70;;;;;;5072283;28;20605;-68
2021/04/28 04:50:45;;;;;;;14.03;12.83;;;5.90;22.40;;;;;;5071753;28;20936;-69
2021/04/28 04:53:11;;;;;;;13.75;12.77;;;6.10;22.20;;;;;;5071337;28;20665;-68
2021/04/28 04:55:37;;;;;;;13.40;12.40;;;6.20;21.90;;;;;;5072359;28;20174;-69
2021/04/28 04:58:02;;;;;;;13.20;12.10;;;6.20;21.60;;;;;;5072532;28;20231;-69
2021/04/28 05:00:28;;;;;;;14.10;13.00;;;6.30;21.30;;;;;;5071587;28;20202;-69
2021/04/28 05:02:53;;;;;;;14.80;13.90;;;6.40;21.00;;;;;;5067307;28;20205;-69
2021/04/28 05:05:19;;;;;;;15.87;14.40;;;6.50;21.10;;;;;;5052209;28;20535;-70
2021/04/28 05:07:45;;;;;;;14.13;13.20;;;6.70;21.20;;;;;;5052032;28;21003;-68
2021/04/28 05:10:12;;;;;;;14.10;13.20;;;6.80;21.30;;;;;;5051335;28;20697;-69
2021/04/28 05:12:37;;;;;;;14.52;13.38;;;6.90;20.80;;;;;;5067301;28;20178;-69
2021/04/28 05:15:05;;;;;;;14.77;13.67;;;7.10;21.00;;;;;;5051820;28;20602;-69
2021/04/28 05:17:31;;;;;;;16.48;15.38;;;7.90;20.80;;;;;;5067230;28;20547;-69
2021/04/28 05:19:57;;;;;;;17.37;16.37;;;9.90;16.40;;;;;;5066517;28;20203;-69
2021/04/28 05:22:23;;;;;;;18.10;17.17;;;10.70;14.50;;;;;;5051957;28;20174;-69
2021/04/28 05:24:49;;;;;;;20.03;18.90;;;11.90;13.20;;;;;;5051944;28;20553;-69
2021/04/28 05:27:16;;;;;;;21.77;20.57;;;14.00;8.20;;;;;;5051782;28;20825;-69
2021/04/28 05:29:42;;;;;;;21.53;20.43;;;14.10;8.60;;;;;;5051131;28;20466;-69
2021/04/28 05:32:07;;;;;;;22.43;21.20;;;14.90;7.60;;;;;;5051814;28;20468;-69
2021/04/28 05:34:33;;;;;;;24.33;22.67;;;15.50;6.00;;;;;;5051590;28;20407;-69
2021/04/28 05:36:58;;;;;;;23.80;22.40;;;16.10;4.40;;;;;;5051735;28;20189;-69
2021/04/28 05:39:24;;;;;;;24.20;22.90;;;16.70;4.70;;;;;;5050962;28;20603;-71
2021/04/28 05:41:50;;;;;;;25.50;23.90;;;17.10;4.60;;;;;;5066846;28;20194;-70
2021/04/28 05:44:15;;;;;;;25.07;23.47;;;17.40;3.40;;;;;;5052722;28;20214;-69
2021/04/28 05:46:41;;;;;;;24.00;22.87;;;17.70;3.00;;;;;;5067750;28;20277;-70
2021/04/28 05:49:06;;;;;;;23.87;22.40;;;18.00;2.70;;;;;;5067166;28;20750;-70
2021/04/28 05:51:32;;;;;;;24.37;23.13;;;18.40;1.80;;;;;;5071269;28;20220;-71
2021/04/28 05:53:58;;;;;;;24.47;22.80;;;18.60;2.00;;;;;;5071184;28;20614;-70
2021/04/28 05:56:24;;;;;;;25.03;23.70;;;18.70;1.60;;;;;;5062496;28;20210;-70
2021/04/28 05:58:50;;;;;;;24.00;22.70;;;18.60;1.80;;;;;;5050745;28;20451;-70
2021/04/28 06:01:15;;;;;;;24.67;23.20;;;18.70;2.20;;;;;;5051294;28;20282;-71
2021/04/28 06:03:41;;;;;;;26.47;24.83;;;18.70;7.20;;;;;;5068729;28;20190;-70
2021/04/28 06:06:08;;;;;;;25.10;23.60;;;18.90;11.20;;;;;;5070910;28;20257;-69
2021/04/28 06:08:34;;;;;;;26.47;24.67;;;19.20;22.60;;;;;;5071049;28;20241;-70
2021/04/28 06:10:59;;;;;;;25.97;24.30;;;19.10;21.00;;;;;;5069380;28;20452;-69
2021/04/28 06:13:25;;;;;;;24.83;23.63;;;19.40;21.40;;;;;;5070956;28;20178;-70
2021/04/28 06:15:50;;;;;;;25.60;23.77;;;19.50;23.70;;;;;;5070855;28;20181;-70
2021/04/28 06:18:16;;;;;;;25.73;24.20;;;19.30;19.00;;;;;;5071081;28;20185;-69
2021/04/28 06:20:41;;;;;;;27.23;25.53;;;19.70;17.90;;;;;;5070279;28;20205;-70
2021/04/28 06:23:07;;;;;;;27.97;26.30;;;19.80;1.00;;;;;;5070481;28;20192;-70
2021/04/28 06:25:32;;;;;;;27.03;25.53;;;19.70;1.00;;;;;;5070774;28;20231;-71
2021/04/28 06:27:58;;;;;;;26.17;24.37;;;20.00;1.00;;;;;;5065525;28;20296;-70
2021/04/28 06:30:24;;;;;;;25.63;24.37;;;20.50;1.00;;;;;;5065939;28;20792;-69
2021/04/28 06:32:49;;;;;;;27.47;25.87;;;20.60;12.40;;;;;;5067350;28;20192;-70
2021/04/28 06:35:15;;;;;;;27.70;25.97;;;20.80;14.60;;;;;;5066408;28;20609;-72
2021/04/28 06:37:41;;;;;;;26.37;24.97;;;21.10;3.00;;;;;;5066679;28;20186;-68
2021/04/28 06:40:08;;;;;;;27.63;26.13;;;21.10;1.00;;;;;;5066882;28;20460;-70
2021/04/28 06:42:34;;;;;;;27.90;26.17;;;21.50;1.00;;;;;;5053706;28;20660;-71
2021/04/28 06:45:00;;;;;;;27.60;25.80;;;21.90;1.00;;;;;;5063985;28;20435;-70
2021/04/28 06:47:26;;;;;;;27.03;25.33;;;22.10;1.00;;;;;;5047809;28;20479;-70
2021/04/28 06:49:54;;;;;;;27.20;25.63;;;22.10;4.50;;;;;;5044527;28;20209;-71
2021/04/28 06:52:19;;;;;;;29.00;27.20;;;22.10;1.00;;;;;;5052631;28;20216;-70
2021/04/28 06:54:45;;;;;;;28.90;27.20;;;22.20;1.00;;;;;;5047020;28;20444;-70
2021/04/28 06:57:11;;;;;;;28.70;26.73;;;22.50;1.00;;;;;;5047327;28;20208;-70
2021/04/28 06:59:36;;;;;;;29.80;27.00;;;22.70;1.00;;;;;;5045440;28;20210;-71
2021/04/28 07:02:02;;;;;;;30.30;27.47;;;22.70;1.00;;;;;;5049557;28;20198;-70
2021/04/28 07:04:28;;;;;;;27.67;25.97;;;22.80;1.00;;;;;;5067406;28;20189;-70
2021/04/28 07:06:54;;;;;;;29.33;27.00;;;22.90;1.00;;;;;;5070645;28;20574;-71
2021/04/28 07:09:19;;;;;;;28.83;27.07;;;22.80;1.00;;;;;;5069858;28;20173;-70
2021/04/28 07:11:46;;;;;;;26.83;25.33;;;22.90;1.00;;;;;;5069700;28;20420;-71
2021/04/28 07:14:12;;;;;;;29.67;27.87;;;23.10;1.00;;;;;;5069354;28;20235;-71
2021/04/28 07:16:38;;;;;;;29.53;27.50;;;23.00;1.00;;;;;;5072642;28;21086;-73
2021/04/28 07:19:04;;;;;;;29.00;27.40;;;22.90;1.00;;;;;;5073965;28;20420;-71
2021/04/28 07:21:30;;;;;;;29.00;27.40;;;22.90;1.00;;;;;;5074696;28;20189;-71
2021/04/28 07:23:55;;;;;;;27.17;25.57;;;22.90;1.00;;;;;;5073537;28;21126;-71
2021/04/28 07:26:21;;;;;;;27.97;26.00;;;22.90;1.00;;;;;;5063070;28;20187;-71
2021/04/28 07:28:49;;;;;;;29.23;27.57;;;23.00;1.00;;;;;;5053782;28;20210;-71
2021/04/28 07:31:16;;;;;;;28.80;27.10;;;23.10;1.00;;;;;;5055251;28;20579;-71
2021/04/28 07:33:42;;;;;;;28.97;27.20;;;23.10;1.00;;;;;;5055502;28;20857;-71
2021/04/28 07:36:08;;;;;;;30.53;28.50;;;22.90;1.00;;;;;;5055503;28;20425;-72
2021/04/28 07:38:34;;;;;;;29.33;27.73;;;;;;;;;;5055497;28;20183;-70
2021/04/28 07:41:00;;;;;;;28.70;27.13;;;;;;;;;;5056621;28;20738;-72
2021/04/28 07:43:26;;;;;;;29.97;27.93;;;22.30;19.20;;;;;;5054870;28;20603;-72
2021/04/28 07:45:52;;;;;;;27.30;25.80;;;22.70;1.00;;;;;;5058711;28;20456;-75
2021/04/28 07:48:17;;;;;;;28.03;26.03;;;23.20;1.00;;;;;;5058929;28;20464;-71
2021/04/28 07:50:44;;;;;;;29.17;27.50;;;23.40;1.00;;;;;;5057039;28;20234;-73
2021/04/28 07:53:10;;;;;;;29.03;27.43;;;23.60;1.00;;;;;;5058706;28;20241;-72
2021/04/28 07:55:37;;;;;;;28.93;27.17;;;24.00;1.00;;;;;;5057349;28;20899;-73
2021/04/28 07:58:05;;;;;;;29.70;28.00;;;24.20;1.00;;;;;;5058435;28;20419;-72
2021/04/28 08:00:31;;;;;;;29.03;27.33;;;24.20;1.00;;;;;;5057685;28;20460;-72
2021/04/28 08:02:57;;;;;;;28.57;26.97;;;24.40;1.00;;;;;;5057323;28;20413;-73
2021/04/28 08:05:23;;;;;;;30.07;27.87;;;25.20;1.00;;;;;;5057158;28;20467;-72
2021/04/28 08:07:49;;;;;;;29.97;28.07;;;25.50;1.00;;;;;;5057507;28;20198;-72
2021/04/28 08:10:16;;;;;;;29.90;28.13;;;25.80;1.00;;;;;;5056643;28;20497;-72
2021/04/28 08:12:43;;;;;;;29.20;26.90;;;25.80;1.00;;;;;;5056790;28;20416;-73
2021/04/28 08:15:09;;;;;;;31.13;28.97;;;26.10;1.00;;;;;;5056772;28;20441;-71
2021/04/28 08:17:35;;;;;;;30.10;28.60;;;26.50;1.00;;;;;;5056932;28;20412;-72
2021/04/28 08:20:02;;;;;;;32.07;30.17;;;26.50;1.00;;;;;;5054518;28;20436;-70
2021/04/28 08:22:27;;;;;;;29.73;27.93;;;26.40;1.00;;;;;;5053592;28;20870;-70
2021/04/28 08:24:53;;;;;;;28.47;26.97;;;25.80;1.00;;;;;;5053604;28;20460;-71
2021/04/28 08:27:19;;;;;;;31.33;29.40;;;25.90;1.00;;;;;;5052174;28;20194;-70
2021/04/28 08:29:45;;;;;;;32.17;30.27;;;25.90;1.00;;;;;;5052875;28;20429;-70
2021/04/28 08:32:11;;;;;;;32.33;30.23;;;25.80;1.00;;;;;;5053399;28;20488;-73
2021/04/28 08:34:36;;;;;;;29.37;27.23;;;25.80;1.00;;;;;;5053281;28;20265;-71
2021/04/28 08:37:02;;;;;;;30.20;28.60;;;25.50;1.00;;;;;;5052276;28;20229;-73
2021/04/28 08:39:27;;;;;;;32.77;29.47;;;25.60;1.00;;;;;;5052676;28;20589;-71
2021/04/28 08:41:53;;;;;;;30.57;28.77;;;25.50;1.00;;;;;;5053142;28;20265;-71
2021/04/28 08:44:19;;;;;;;30.90;28.90;;;24.90;1.00;;;;;;5051830;28;20258;-72
2021/04/28 08:46:46;;;;;;;32.43;29.97;;;23.70;1.00;;;;;;5053187;28;20175;-71
2021/04/28 08:49:12;;;;;;;30.93;29.13;;;23.30;1.00;;;;;;5052458;28;20774;-71
2021/04/28 08:51:38;;;;;;;29.87;28.17;;;22.70;1.00;;;;;;5053184;28;20420;-71
2021/04/28 08:54:07;;;;;;;29.63;28.00;;;22.10;1.00;;;;;;5053093;28;20454;-71
2021/04/28 08:56:34;;;;;;;30.90;28.80;;;21.70;1.70;;;;;;5053053;28;20916;-70
2021/04/28 08:59:06;;;;;;;31.17;29.27;;;21.30;1.00;;;;;;5052412;28;20812;-72
2021/04/28 09:01:34;;;;;;;32.30;29.30;;;21.00;2.40;;;;;;5052909;28;20433;-71
2021/04/28 09:04:01;;;;;;;30.67;28.83;;;20.80;2.10;;;;;;5053019;28;20414;-70
2021/04/28 09:06:32;;;;;;;32.57;30.47;;;20.50;2.10;;;;;;5051371;28;20421;-70
2021/04/28 09:09:04;;;;;;;29.83;28.27;;;20.30;1.70;;;;;;5050698;28;20510;-71
2021/04/28 09:11:45;;;;;;;30.40;28.07;;;20.60;1.60;;;;;;5052497;28;20471;-70
2021/04/28 09:14:16;;;;;;;31.93;30.03;;;20.60;2.30;;;;;;5052668;28;20409;-70
2021/04/28 09:16:44;;;;;;;31.40;29.40;;;20.70;1.00;;;;;;5054807;28;20500;-70
2021/04/28 09:19:27;;;;;;;29.50;27.80;;;20.80;1.00;;;;;;5056241;28;20410;-70
2021/04/28 09:21:58;;;;;;;29.50;27.57;;;20.90;1.00;;;;;;5057562;28;20771;-71
2021/04/28 09:24:26;;;;;;;29.83;27.80;;;21.20;1.00;;;;;;5057045;28;20413;-70
2021/04/28 09:26:54;;;;;;;26.90;25.00;;;21.20;1.00;;;;;;5056565;28;20405;-70
2021/04/28 09:29:22;;;;;;;27.30;25.80;;;21.20;1.00;;;;;;5054842;28;20444;-70
2021/04/28 09:32:02;;;;;;;25.93;24.43;;;21.10;1.00;;;;;;5055758;28;20401;-71
2021/04/28 09:34:33;;;;;;;22.87;21.93;;;21.20;1.00;;;;;;5056952;28;20413;-71
2021/04/28 09:37:04;;;;;;;28.10;26.23;;;21.40;1.00;;;;;;5055934;28;20421;-71
2021/04/28 09:39:30;;;;;;;25.27;23.97;;;21.40;1.00;;;;;;5054974;28;20413;-71
2021/04/28 09:41:57;;;;;;;28.07;26.50;;;21.40;1.00;;;;;;5054763;28;20428;-70
2021/04/28 09:44:28;;;;;;;25.70;24.10;;;21.40;1.00;;;;;;5056130;28;20171;-71
2021/04/28 09:47:15;;;;;;;26.17;24.53;;;21.40;1.00;;;;;;5056232;28;20539;-70
2021/04/28 09:49:59;;;;;;;26.10;24.60;;;21.70;1.00;;;;;;5055316;28;20425;-71
2021/04/28 09:52:33;;;;;;;25.30;23.77;;;21.80;1.00;;;;;;5054698;28;20428;-70
2021/04/28 09:55:15;;;;;;;27.57;25.90;;;21.90;1.00;;;;;;5056082;28;20512;-71
2021/04/28 09:57:43;;;;;;;27.53;26.13;;;21.70;1.00;;;;;;5056373;28;20416;-70
2021/04/28 10:00:28;;;;;;;25.43;23.70;;;21.50;1.00;;;;;;5055218;28;20434;-71
2021/04/28 10:02:55;;;;;;;25.20;24.00;;;21.40;1.00;;;;;;5055529;28;20519;-71
2021/04/28 10:05:22;;;;;;;25.77;24.37;;;21.30;1.00;;;;;;5056182;28;20421;-71
2021/04/28 10:07:49;;;;;;;26.70;25.33;;;21.30;1.00;;;;;;5056238;28;20457;-70
2021/04/28 10:10:16;;;;;;;24.87;23.53;;;21.10;1.00;;;;;;5055692;28;20482;-71
2021/04/28 10:12:42;;;;;;;24.40;23.20;;;21.00;1.00;;;;;;5056132;28;20458;-70
2021/04/28 10:15:08;;;;;;;26.00;24.80;;;20.90;1.00;;;;;;5055099;28;20410;-70
2021/04/28 10:17:35;;;;;;;25.87;24.30;;;20.90;1.00;;;;;;5056441;28;20698;-71
2021/04/28 10:20:03;;;;;;;25.13;24.03;;;20.90;1.00;;;;;;5055519;28;20448;-72
2021/04/28 10:22:29;;;;;;;25.37;23.80;;;20.90;1.00;;;;;;5056129;28;20420;-70
2021/04/28 10:24:56;;;;;;;24.47;23.00;;;20.90;1.00;;;;;;5058707;28;20409;-71
2021/04/28 10:27:22;;;;;;;25.23;23.90;;;21.20;1.00;;;;;;5055195;28;20551;-71
2021/04/28 10:29:51;;;;;;;26.67;25.40;;;21.40;1.00;;;;;;5054114;28;20421;-72
2021/04/28 10:32:19;;;;;;;26.37;24.77;;;21.90;1.00;;;;;;5054759;28;20914;-71
2021/04/28 10:34:55;;;;;;;24.53;23.27;;;22.30;1.00;;;;;;5054552;28;20409;-71
2021/04/28 10:37:25;;;;;;;26.33;25.03;;;22.40;1.00;;;;;;5054126;28;20412;-72
2021/04/28 10:39:51;;;;;;;24.63;23.37;;;22.50;1.00;;;;;;5055271;28;20551;-71
2021/04/28 10:42:23;;;;;;;26.40;25.20;;;22.30;1.00;;;;;;5051021;28;20567;-71
2021/04/28 10:44:50;;;;;;;25.80;24.50;;;22.40;1.00;;;;;;5050818;28;20203;-71
2021/04/28 10:47:27;;;;;;;27.37;25.60;;;22.60;1.00;;;;;;5050844;28;20457;-72
2021/04/28 10:50:20;;;;;;;25.63;24.23;;;22.80;1.00;;;;;;5049948;28;20439;-71
2021/04/28 10:53:02;;;;;;;24.47;23.27;;;22.50;1.00;;;;;;5050909;28;20405;-71
2021/04/28 10:55:47;;;;;;;25.50;24.20;;;22.20;1.00;;;;;;5050881;28;20417;-71
2021/04/28 10:58:32;;;;;;;25.20;24.00;;;22.10;1.00;;;;;;5051050;28;20455;-71
2021/04/28 11:01:00;;;;;;;25.60;24.20;;;21.70;1.00;;;;;;5050118;28;20509;-72
2021/04/28 11:03:41;;;;;;;26.67;24.73;;;21.60;1.00;;;;;;5050645;28;20404;-71
2021/04/28 11:06:19;;;;;;;29.43;27.40;;;21.40;1.00;;;;;;5050656;28;20408;-71
2021/04/28 11:09:00;;;;;;;29.67;27.77;;;21.30;2.20;;;;;;5050313;28;20961;-73
2021/04/28 11:11:38;;;;;;;27.57;26.07;;;21.20;2.60;;;;;;5050714;28;20479;-70
2021/04/28 11:16:52;;;;;;;27.30;25.80;;;21.10;2.70;;;;;;5050753;28;20405;-70
2021/04/28 11:19:25;;;;;;;31.43;28.37;;;21.00;3.60;;;;;;5050066;28;20404;-71
2021/04/28 11:22:03;;;;;;;28.13;26.37;;;20.70;3.40;;;;;;5050767;28;20436;-70
2021/04/28 11:25:07;;;;;;;26.70;25.30;;;20.70;3.50;;;;;;5050752;28;20844;-71
2021/04/28 11:28:02;;;;;;;28.93;27.00;;;20.60;4.10;;;;;;5050570;28;20825;-71
2021/04/28 11:30:34;;;;;;;28.17;26.50;;;20.60;4.40;;;;;;5049508;28;20425;-72
2021/04/28 11:33:10;;;;;;;30.13;28.03;;;20.50;3.30;;;;;;5050681;28;20393;-71
2021/04/28 11:35:58;;;;;;;27.10;25.40;;;20.50;3.50;;;;;;5050267;28;20401;-71
2021/04/28 11:38:31;;;;;;;28.63;26.80;;;20.70;3.60;;;;;;5035927;28;20478;-71
2021/04/28 11:41:04;;;;;;;26.40;24.07;;;20.80;2.90;;;;;;5049432;28;20502;-70
2021/04/28 11:43:41;;;;;;;26.80;25.40;;;20.80;2.60;;;;;;5050129;28;20463;-71
2021/04/28 11:46:32;;;;;;;28.40;26.70;;;20.70;3.20;;;;;;5050382;28;20770;-71
2021/04/28 11:48:59;;;;;;;27.57;26.10;;;20.60;4.30;;;;;;5040493;28;21020;-70
2021/04/28 11:51:33;;;;;;;26.33;24.77;;;20.70;4.10;;;;;;5050176;28;20807;-70
2021/04/28 11:54:01;;;;;;;28.17;26.57;;;20.80;3.50;;;;;;5050151;28;20782;-71
2021/04/28 11:56:36;;;;;;;25.67;24.37;;;20.90;3.00;;;;;;5050192;28;20413;-72
2021/04/28 11:59:03;;;;;;;28.30;26.70;;;20.90;3.00;;;;;;5049390;28;20405;-72
2021/04/28 12:01:31;;;;;;;26.50;25.10;;;20.80;3.50;;;;;;5050242;28;20433;-70
2021/04/28 12:04:06;;;;;;;26.83;25.30;;;20.90;3.50;;;;;;5053603;28;20781;-72
2021/04/28 12:06:45;;;;;;;27.83;26.13;;;20.90;2.90;;;;;;5053952;28;20416;-72
2021/04/28 12:09:23;;;;;;;26.70;25.30;;;20.90;2.80;;;;;;5053043;28;20471;-71
2021/04/28 12:12:20;;;;;;;26.03;24.73;;;21.00;3.20;;;;;;5053528;28;20948;-71
2021/04/28 12:14:53;;;;;;;26.93;25.43;;;20.90;3.50;;;;;;5053389;28;20458;-72
2021/04/28 12:17:25;;;;;;;25.70;24.20;;;21.10;3.70;;;;;;5053459;28;20405;-71
2021/04/28 12:19:54;;;;;;;27.07;25.03;;;21.00;2.90;;;;;;5052775;28;20436;-71
2021/04/28 12:22:21;;;;;;;27.13;25.30;;;20.90;1.80;;;;;;5053270;28;20413;-70
2021/04/28 12:24:49;;;;;;;27.27;25.17;;;20.70;2.60;;;;;;5051856;28;20435;-72
2021/04/28 12:27:28;;;;;;;28.60;26.60;;;20.70;2.60;;;;;;5053193;28;20496;-72
2021/04/28 12:30:14;;;;;;;26.00;24.13;;;20.70;3.10;;;;;;5052400;28;20432;-71
2021/04/28 12:32:45;;;;;;;27.47;25.70;;;20.70;3.20;;;;;;5052946;28;20421;-72
2021/04/28 12:35:20;;;;;;;28.53;26.60;;;20.90;1.90;;;;;;5052927;28;20411;-72
2021/04/28 12:38:11;;;;;;;25.00;23.60;;;21.10;1.40;;;;;;5051735;28;20425;-71
2021/04/28 12:40:58;;;;;;;26.87;25.27;;;21.10;2.20;;;;;;5052291;28;20510;-71
2021/04/28 12:43:25;;;;;;;25.87;23.97;;;21.10;1.60;;;;;;5052686;28;20409;-72
2021/04/28 12:45:51;;;;;;;27.73;25.93;;;21.20;1.00;;;;;;5053120;28;20948;-72